createdAt,value
2023-09-09T00:06:31.523Z,13.68
2023-09-09T00:16:36.419Z,11.90
2023-09-09T00:26:39.668Z,10.80
2023-09-09T00:36:44.202Z,11.57
2023-09-09T00:46:47.850Z,10.18
2023-09-09T00:56:52.562Z,9.73
2023-09-09T01:06:55.796Z,9.60
2023-09-09T01:17:01.117Z,21.27
2023-09-09T01:27:06.804Z,13.10
2023-09-09T01:37:10.857Z,10.48
2023-09-09T01:47:15.991Z,10.00
2023-09-09T01:57:23.082Z,10.52
2023-09-09T02:07:28.158Z,10.70
2023-09-09T02:17:31.407Z,12.35
2023-09-09T02:27:36.115Z,12.63
2023-09-09T02:37:39.283Z,13.23
2023-09-09T02:47:44.414Z,13.52
2023-09-09T02:57:49.907Z,13.38
2023-09-09T03:07:54.830Z,11.98
2023-09-09T03:17:59.002Z,13.65
2023-09-09T03:28:05.158Z,13.80
2023-09-09T03:38:08.436Z,15.13
2023-09-09T03:48:14.255Z,14.55
2023-09-09T03:58:17.811Z,14.75
2023-09-09T04:08:22.415Z,14.90
2023-09-09T04:18:42.408Z,14.50
2023-09-09T04:28:49.662Z,14.73
2023-09-09T04:38:53.353Z,13.82
2023-09-09T04:48:58.272Z,13.77
2023-09-09T04:59:01.663Z,14.27
2023-09-09T05:09:06.603Z,14.90
2023-09-09T05:19:09.920Z,14.27
2023-09-09T05:29:14.467Z,14.38
2023-09-09T05:39:18.479Z,14.07
2023-09-09T05:49:36.050Z,14.07
2023-09-09T05:59:42.019Z,14.45
2023-09-09T06:09:49.019Z,13.80
2023-09-09T06:19:52.344Z,14.50
2023-09-09T06:29:57.014Z,13.52
2023-09-09T06:40:00.348Z,14.45
2023-09-09T06:50:05.327Z,14.88
2023-09-09T07:00:09.744Z,13.73
2023-09-09T07:10:14.546Z,12.55
2023-09-09T07:20:18.135Z,14.25
2023-09-09T07:30:22.741Z,12.00
2023-09-09T07:40:25.992Z,12.57
2023-09-09T07:50:30.520Z,11.10
2023-09-09T08:00:34.674Z,11.45
2023-09-09T08:10:39.408Z,12.10
2023-09-09T08:20:42.804Z,11.38
2023-09-09T08:30:47.375Z,10.68
2023-09-09T08:40:57.188Z,11.25
2023-09-09T08:51:05.509Z,11.05
2023-09-09T09:01:09.453Z,11.20
2023-09-09T09:11:15.299Z,10.82
2023-09-09T09:21:18.539Z,10.38
2023-09-09T09:31:23.442Z,10.05
2023-09-09T09:41:26.617Z,9.98
2023-09-09T09:51:44.487Z,9.18
2023-09-09T10:01:48.070Z,11.07
2023-09-09T10:11:59.620Z,10.00
2023-09-09T10:22:03.286Z,9.23
2023-09-09T10:32:12.404Z,9.30
2023-09-09T10:42:16.776Z,8.05
2023-09-09T10:52:39.007Z,8.20
2023-09-09T11:02:49.050Z,8.95
2023-09-09T11:13:00.401Z,8.30
2023-09-09T11:23:03.978Z,8.18
2023-09-09T11:33:08.490Z,6.47
2023-09-09T11:43:11.708Z,6.88
2023-09-09T11:53:16.515Z,6.55
2023-09-09T12:03:23.018Z,7.90
2023-09-09T12:13:28.288Z,6.43
2023-09-09T12:23:32.194Z,7.28
2023-09-09T12:33:45.064Z,6.82
2023-09-09T12:43:48.961Z,5.68
2023-09-09T12:53:53.770Z,6.38
2023-09-09T13:03:56.983Z,6.10
2023-09-09T13:14:13.280Z,5.50
2023-09-09T13:24:25.502Z,5.28
2023-09-09T13:34:30.691Z,4.85
2023-09-09T13:44:34.334Z,5.10
2023-09-09T13:54:39.571Z,5.05
2023-09-09T14:04:42.801Z,6.30
2023-09-09T14:14:47.286Z,5.43
2023-09-09T14:24:50.427Z,4.95
2023-09-09T14:34:54.958Z,5.10
2023-09-09T14:44:58.152Z,6.68
2023-09-09T14:55:02.806Z,5.00
2023-09-09T15:05:08.324Z,5.20
2023-09-09T15:15:13.860Z,5.28
2023-09-09T15:25:17.145Z,5.53
2023-09-09T15:35:21.900Z,5.75
2023-09-09T15:45:25.088Z,6.15
2023-09-09T15:55:31.144Z,6.05
2023-09-09T16:05:35.349Z,5.95
2023-09-09T16:15:40.057Z,6.88
2023-09-09T16:25:45.855Z,6.40
2023-09-09T16:35:50.544Z,6.90
2023-09-09T16:45:53.835Z,5.53
2023-09-09T16:56:02.056Z,8.00
2023-09-09T17:06:05.390Z,8.45
2023-09-09T17:16:10.076Z,5.85
2023-09-09T17:26:13.237Z,6.60
2023-09-09T17:36:17.765Z,5.88
2023-09-09T17:46:20.998Z,7.47
2023-09-09T17:56:26.220Z,6.90
2023-09-09T18:06:29.714Z,14.77
2023-09-09T18:16:34.533Z,9.13
2023-09-09T18:26:37.790Z,7.80
2023-09-09T18:36:42.352Z,12.52
2023-09-09T18:46:45.657Z,10.57
2023-09-09T18:56:52.323Z,12.32
2023-09-09T19:06:57.868Z,8.98
2023-09-09T19:17:02.443Z,10.27
2023-09-09T19:27:06.022Z,12.63
2023-09-09T19:37:10.514Z,13.25
2023-09-09T19:47:13.706Z,12.15
2023-09-09T19:57:18.575Z,12.27
2023-09-09T20:07:22.066Z,10.55
2023-09-09T20:17:26.611Z,9.38
2023-09-09T20:27:29.811Z,12.23
2023-09-09T20:37:34.430Z,9.40
2023-09-09T20:47:37.725Z,9.77
2023-09-09T20:57:43.478Z,11.43
2023-09-09T21:07:48.160Z,10.02
2023-09-09T21:17:52.770Z,10.50
2023-09-09T21:27:56.129Z,9.95
2023-09-09T21:38:00.739Z,9.07
2023-09-09T21:48:04.133Z,12.48
2023-09-09T21:58:08.655Z,10.55
2023-09-09T22:08:11.820Z,10.18
2023-09-09T22:18:16.599Z,9.23
2023-09-09T22:28:19.825Z,10.63
2023-09-09T22:38:24.434Z,10.20
2023-09-09T22:48:28.343Z,10.40
2023-09-09T22:58:34.793Z,10.57
2023-09-09T23:08:38.666Z,10.98
2023-09-09T23:18:45.054Z,10.23
2023-09-09T23:28:48.258Z,9.77
2023-09-09T23:38:52.825Z,10.50
2023-09-09T23:48:55.990Z,9.73
2023-09-09T23:59:00.587Z,9.90
